createdAt,value
2023-01-17T00:00:58.173Z,3.72
2023-01-17T00:07:00.576Z,3.65
2023-01-17T00:13:04.252Z,3.60
2023-01-17T00:19:08.193Z,3.57
2023-01-17T00:25:10.227Z,3.52
2023-01-17T00:30:46.625Z,3.49
2023-01-17T00:36:29.726Z,3.47
2023-01-17T00:42:12.830Z,3.44
2023-01-17T00:48:14.354Z,3.39
2023-01-17T00:54:18.862Z,3.33
2023-01-17T01:00:21.057Z,3.28
2023-01-17T01:06:22.982Z,3.25
2023-01-17T01:12:24.762Z,3.18
2023-01-17T01:18:25.411Z,3.14
2023-01-17T01:24:27.706Z,3.11
2023-01-17T01:30:29.996Z,3.08
2023-01-17T01:36:26.925Z,3.09
2023-01-17T01:42:30.389Z,3.10
2023-01-17T01:48:42.965Z,3.06
2023-01-17T01:54:55.223Z,3.00
2023-01-17T02:00:58.912Z,2.97
2023-01-17T02:07:05.662Z,2.97
2023-01-17T02:12:53.005Z,2.99
2023-01-17T02:19:01.143Z,3.02
2023-01-17T02:25:10.332Z,3.04
2023-01-17T02:31:20.058Z,3.03
2023-01-17T02:37:23.522Z,3.01
2023-01-17T02:43:26.892Z,2.97
2023-01-17T02:49:30.604Z,2.95
2023-01-17T02:55:39.793Z,2.93
2023-01-17T03:01:49.493Z,2.94
2023-01-17T03:07:52.964Z,2.97
2023-01-17T03:13:56.745Z,3.03
2023-01-17T03:20:00.200Z,3.08
2023-01-17T03:26:03.670Z,3.10
2023-01-17T03:32:07.031Z,3.10
2023-01-17T03:38:10.624Z,3.08
2023-01-17T03:44:13.999Z,3.08
2023-01-17T03:50:17.405Z,3.11
2023-01-17T03:56:20.771Z,3.12
2023-01-17T04:02:23.035Z,3.15
2023-01-17T04:08:26.731Z,3.19
2023-01-17T04:14:30.150Z,3.24
2023-01-17T04:20:33.772Z,3.29
2023-01-17T04:26:37.144Z,3.35
2023-01-17T04:32:40.813Z,3.40
2023-01-17T04:38:44.232Z,3.46
2023-01-17T04:44:47.776Z,3.50
2023-01-17T04:50:41.494Z,3.54
2023-01-17T04:56:47.950Z,3.57
2023-01-17T05:02:51.409Z,3.58
2023-01-17T05:08:53.543Z,3.53
2023-01-17T05:14:57.144Z,3.49
2023-01-17T05:20:48.118Z,3.46
2023-01-17T05:26:30.016Z,3.46
2023-01-17T05:32:12.726Z,3.48
2023-01-17T05:38:01.234Z,3.50
2023-01-17T05:43:24.630Z,3.52
2023-01-17T05:49:07.987Z,3.55
2023-01-17T05:54:37.042Z,3.58
2023-01-17T06:00:03.917Z,3.60
2023-01-17T06:05:57.179Z,3.59
2023-01-17T06:11:18.093Z,3.61
2023-01-17T06:17:01.500Z,3.60
2023-01-17T06:22:44.710Z,3.61
2023-01-17T06:28:16.898Z,3.60
2023-01-17T06:33:38.952Z,3.59
2023-01-17T06:39:18.822Z,3.56
2023-01-17T06:44:23.189Z,3.57
2023-01-17T06:49:29.055Z,3.57
2023-01-17T06:54:49.339Z,3.56
2023-01-17T07:00:04.839Z,3.56
2023-01-17T07:05:20.528Z,3.51
2023-01-17T07:10:30.982Z,3.50
2023-01-17T07:15:37.185Z,3.51
2023-01-17T07:20:47.453Z,3.49
2023-01-17T07:26:11.036Z,3.49
2023-01-17T07:31:16.791Z,3.50
2023-01-17T07:36:23.289Z,3.50
2023-01-17T07:41:26.894Z,3.51
2023-01-17T07:46:29.949Z,3.53
2023-01-17T07:51:35.774Z,3.54
2023-01-17T07:56:45.514Z,3.55
2023-01-17T08:01:59.881Z,3.57
2023-01-17T08:07:07.852Z,3.59
2023-01-17T08:12:15.932Z,3.60
2023-01-17T08:17:38.200Z,3.60
2023-01-17T08:22:43.918Z,3.63
2023-01-17T08:27:58.857Z,3.63
2023-01-17T08:33:17.397Z,3.66
2023-01-17T08:38:23.619Z,3.67
2023-01-17T08:43:34.396Z,3.67
2023-01-17T08:48:43.144Z,3.68
2023-01-17T08:54:14.676Z,3.69
2023-01-17T08:59:43.570Z,3.74
2023-01-17T09:04:52.134Z,3.75
2023-01-17T09:10:44.288Z,3.73
2023-01-17T09:16:05.381Z,3.75
2023-01-17T09:21:29.611Z,3.77
2023-01-17T09:27:22.112Z,3.78
2023-01-17T09:32:44.796Z,3.85
2023-01-17T09:37:55.312Z,3.85
2023-01-17T09:43:41.021Z,3.85
2023-01-17T09:48:52.668Z,3.75
2023-01-17T09:54:06.090Z,3.62
2023-01-17T09:59:36.171Z,3.63
2023-01-17T10:05:08.849Z,3.71
2023-01-17T10:10:26.237Z,3.74
2023-01-17T10:15:54.218Z,3.75
2023-01-17T10:21:40.753Z,3.77
2023-01-17T10:26:56.233Z,3.83
2023-01-17T10:32:34.265Z,3.83
2023-01-17T10:38:03.543Z,3.75
2023-01-17T10:44:08.061Z,3.60
2023-01-17T10:49:47.341Z,3.48
2023-01-17T10:55:18.596Z,3.42
2023-01-17T11:01:20.590Z,3.35
2023-01-17T11:06:57.085Z,3.37
2023-01-17T11:12:39.545Z,3.34
2023-01-17T11:18:05.392Z,3.29
2023-01-17T11:23:30.276Z,3.28
2023-01-17T11:28:41.489Z,3.27
2023-01-17T11:34:05.366Z,3.15
2023-01-17T11:39:48.048Z,3.05
2023-01-17T11:44:53.457Z,2.89
2023-01-17T11:50:15.994Z,2.64
2023-01-17T11:55:47.247Z,2.38
2023-01-17T12:01:27.196Z,2.42
2023-01-17T12:06:56.800Z,2.51
2023-01-17T12:12:51.962Z,2.45
2023-01-17T12:18:41.687Z,2.50
2023-01-17T12:24:52.509Z,2.55
2023-01-17T12:30:32.575Z,2.62
2023-01-17T12:35:53.118Z,2.73
2023-01-17T12:41:23.534Z,2.85
2023-01-17T12:47:04.534Z,2.92
2023-01-17T12:52:28.632Z,2.95
2023-01-17T12:57:57.537Z,3.00
2023-01-17T13:03:49.544Z,2.99
2023-01-17T13:09:00.789Z,3.00
2023-01-17T13:14:12.700Z,3.01
2023-01-17T13:19:46.100Z,3.03
2023-01-17T13:25:44.298Z,3.10
2023-01-17T13:30:58.942Z,3.21
2023-01-17T13:37:08.785Z,3.31
2023-01-17T13:42:36.144Z,3.41
2023-01-17T13:47:44.279Z,3.47
2023-01-17T13:52:52.105Z,3.49
2023-01-17T13:57:59.877Z,3.50
2023-01-17T14:03:12.159Z,3.49
2023-01-17T14:08:21.992Z,3.39
2023-01-17T14:13:37.252Z,3.34
2023-01-17T14:18:55.922Z,3.41
2023-01-17T14:24:25.082Z,3.33
2023-01-17T14:29:50.720Z,3.25
2023-01-17T14:34:57.398Z,3.21
2023-01-17T14:40:41.258Z,3.19
2023-01-17T14:46:10.629Z,3.17
2023-01-17T14:51:35.565Z,3.11
2023-01-17T14:56:46.546Z,3.12
2023-01-17T15:02:18.738Z,3.08
2023-01-17T15:07:56.521Z,3.05
2023-01-17T15:13:42.711Z,2.97
2023-01-17T15:19:00.350Z,2.89
2023-01-17T15:24:39.874Z,2.77
2023-01-17T15:29:48.217Z,2.69
2023-01-17T15:35:03.043Z,2.63
2023-01-17T15:41:05.146Z,2.58
2023-01-17T15:46:50.530Z,2.49
2023-01-17T15:52:04.803Z,2.36
2023-01-17T15:57:47.908Z,2.24
2023-01-17T16:03:22.063Z,2.16
2023-01-17T16:08:39.604Z,2.12
2023-01-17T16:13:47.260Z,2.08
2023-01-17T16:18:59.075Z,2.06
2023-01-17T16:24:12.345Z,2.01
2023-01-17T16:29:18.414Z,1.88
2023-01-17T16:34:29.164Z,1.73
2023-01-17T16:39:47.641Z,1.57
2023-01-17T16:45:00.847Z,1.47
2023-01-17T16:50:18.056Z,1.36
2023-01-17T16:55:32.781Z,1.25
2023-01-17T17:00:49.350Z,1.18
2023-01-17T17:06:00.823Z,1.08
2023-01-17T17:11:24.928Z,0.96
2023-01-17T17:16:31.099Z,0.86
2023-01-17T17:21:49.239Z,0.77
2023-01-17T17:26:57.197Z,0.68
2023-01-17T17:32:11.461Z,0.61
2023-01-17T17:37:30.298Z,0.50
2023-01-17T17:42:39.015Z,0.43
2023-01-17T17:47:44.795Z,0.33
2023-01-17T17:52:53.766Z,0.21
2023-01-17T17:58:02.096Z,0.07
2023-01-17T18:03:20.548Z,0.00
2023-01-17T18:09:23.974Z,-0.06
2023-01-17T18:15:27.660Z,-0.14
2023-01-17T18:21:23.394Z,-0.21
2023-01-17T18:27:27.112Z,-0.32
2023-01-17T18:33:30.975Z,-0.42
2023-01-17T18:39:37.664Z,-0.51
2023-01-17T18:45:39.917Z,-0.59
2023-01-17T18:51:43.307Z,-0.65
2023-01-17T18:57:45.973Z,-0.72
2023-01-17T19:03:49.844Z,-0.80
2023-01-17T19:09:47.074Z,-0.94
2023-01-17T19:15:50.834Z,-1.01
2023-01-17T19:21:54.284Z,-1.09
2023-01-17T19:27:58.122Z,-1.15
2023-01-17T19:34:01.703Z,-1.18
2023-01-17T19:40:05.295Z,-1.21
2023-01-17T19:46:08.969Z,-1.26
2023-01-17T19:51:35.900Z,-1.30
2023-01-17T19:57:39.306Z,-1.34
2023-01-17T20:03:42.760Z,-1.43
2023-01-17T20:09:46.159Z,-1.49
2023-01-17T20:15:32.914Z,-1.59
2023-01-17T20:21:36.355Z,-1.64
2023-01-17T20:27:40.110Z,-1.71
2023-01-17T20:33:43.124Z,-1.77
2023-01-17T20:39:46.570Z,-1.82
2023-01-17T20:45:50.185Z,-1.90
2023-01-17T20:51:53.567Z,-1.95
2023-01-17T20:57:49.610Z,-1.99
2023-01-17T21:03:52.992Z,-2.06
2023-01-17T21:09:56.464Z,-2.10
2023-01-17T21:15:52.659Z,-2.13
2023-01-17T21:21:56.210Z,-2.15
2023-01-17T21:27:59.851Z,-2.18
2023-01-17T21:34:03.258Z,-2.22
2023-01-17T21:40:06.701Z,-2.32
2023-01-17T21:46:08.860Z,-2.37
2023-01-17T21:52:15.066Z,-2.40
2023-01-17T21:58:16.863Z,-2.41
2023-01-17T22:04:20.042Z,-2.46
2023-01-17T22:10:23.717Z,-2.53
2023-01-17T22:16:17.389Z,-2.58
2023-01-17T22:22:13.959Z,-2.63
2023-01-17T22:28:07.366Z,-2.71
2023-01-17T22:34:04.611Z,-2.77
2023-01-17T22:40:08.073Z,-2.81
2023-01-17T22:46:11.826Z,-2.83
2023-01-17T22:52:15.314Z,-2.91
2023-01-17T22:58:18.717Z,-3.00
2023-01-17T23:04:14.822Z,-3.05
2023-01-17T23:10:18.248Z,-3.11
2023-01-17T23:16:20.285Z,-3.15
2023-01-17T23:22:14.819Z,-3.20
2023-01-17T23:28:32.697Z,-3.26
2023-01-17T23:34:36.089Z,-3.31
2023-01-17T23:40:39.961Z,-3.34
2023-01-17T23:46:43.384Z,-3.34
2023-01-17T23:52:47.181Z,-3.40
2023-01-17T23:58:43.705Z,-3.46
